createdAt,value
2023-04-27T00:00:56.959Z,727.00
2023-04-27T00:01:57.023Z,729.00
2023-04-27T00:02:57.174Z,728.00
2023-04-27T00:03:57.153Z,729.00
2023-04-27T00:04:57.263Z,731.00
2023-04-27T00:05:57.211Z,729.00
2023-04-27T00:06:57.039Z,730.00
2023-04-27T00:07:57.069Z,727.00
2023-04-27T00:08:57.065Z,725.00
2023-04-27T00:09:57.068Z,724.00
2023-04-27T00:10:57.073Z,724.00
2023-04-27T00:11:58.240Z,726.00
2023-04-27T00:12:57.116Z,729.00
2023-04-27T00:13:57.119Z,724.00
2023-04-27T00:14:57.115Z,719.00
2023-04-27T00:15:57.187Z,723.00
2023-04-27T00:16:57.131Z,720.00
2023-04-27T00:17:57.830Z,723.00
2023-04-27T00:18:57.162Z,718.00
2023-04-27T00:19:57.162Z,718.00
2023-04-27T00:20:57.168Z,716.00
2023-04-27T00:21:57.202Z,723.00
2023-04-27T00:22:57.751Z,720.00
2023-04-27T00:23:57.176Z,719.00
2023-04-27T00:24:57.182Z,717.00
2023-04-27T00:25:57.200Z,718.00
2023-04-27T00:26:57.209Z,717.00
2023-04-27T00:27:57.227Z,718.00
2023-04-27T00:28:57.228Z,716.00
2023-04-27T00:29:57.244Z,711.00
2023-04-27T00:30:57.250Z,711.00
2023-04-27T00:31:57.851Z,709.00
2023-04-27T00:32:57.298Z,708.00
2023-04-27T00:33:57.656Z,707.00
2023-04-27T00:34:57.290Z,707.00
2023-04-27T00:35:57.315Z,704.00
2023-04-27T00:36:57.339Z,703.00
2023-04-27T00:37:57.343Z,701.00
2023-04-27T00:38:57.350Z,701.00
2023-04-27T00:39:57.356Z,704.00
2023-04-27T00:40:57.357Z,707.00
2023-04-27T00:41:57.362Z,705.00
2023-04-27T00:42:57.362Z,701.00
2023-04-27T00:43:57.363Z,702.00
2023-04-27T00:44:57.387Z,705.00
2023-04-27T00:45:57.464Z,705.00
2023-04-27T00:46:57.437Z,706.00
2023-04-27T00:47:57.518Z,707.00
2023-04-27T00:48:57.453Z,708.00
2023-04-27T00:49:57.475Z,711.00
2023-04-27T00:50:57.466Z,710.00
2023-04-27T00:51:57.477Z,710.00
2023-04-27T00:52:58.348Z,713.00
2023-04-27T00:53:57.464Z,714.00
2023-04-27T00:54:57.469Z,710.00
2023-04-27T00:55:57.479Z,708.00
2023-04-27T00:56:57.477Z,711.00
2023-04-27T00:57:57.495Z,709.00
2023-04-27T00:58:57.493Z,706.00
2023-04-27T00:59:57.502Z,709.00
2023-04-27T01:00:58.758Z,708.00
2023-04-27T01:01:57.511Z,707.00
2023-04-27T01:02:57.595Z,706.00
2023-04-27T01:03:58.839Z,705.00
2023-04-27T01:04:57.556Z,709.00
2023-04-27T01:05:57.894Z,709.00
2023-04-27T01:06:57.609Z,708.00
2023-04-27T01:07:57.651Z,709.00
2023-04-27T01:08:57.986Z,713.00
2023-04-27T01:09:57.673Z,714.00
2023-04-27T01:10:57.675Z,712.00
2023-04-27T01:11:57.673Z,715.00
2023-04-27T01:12:57.669Z,710.00
2023-04-27T01:13:57.688Z,711.00
2023-04-27T01:14:57.702Z,711.00
2023-04-27T01:15:57.710Z,710.00
2023-04-27T01:16:57.728Z,708.00
2023-04-27T01:17:57.754Z,708.00
2023-04-27T01:18:57.729Z,708.00
2023-04-27T01:19:57.746Z,706.00
2023-04-27T01:20:57.741Z,705.00
2023-04-27T01:21:57.777Z,700.00
2023-04-27T01:22:57.791Z,700.00
2023-04-27T01:23:57.798Z,702.00
2023-04-27T01:24:57.802Z,704.00
2023-04-27T01:25:57.801Z,703.00
2023-04-27T01:26:57.813Z,705.00
2023-04-27T01:27:57.827Z,701.00
2023-04-27T01:28:57.840Z,700.00
2023-04-27T01:29:57.845Z,702.00
2023-04-27T01:30:57.920Z,702.00
2023-04-27T01:31:57.855Z,703.00
2023-04-27T01:32:57.911Z,703.00
2023-04-27T01:33:57.871Z,705.00
2023-04-27T01:34:57.885Z,707.00
2023-04-27T01:35:57.865Z,707.00
2023-04-27T01:36:57.867Z,707.00
2023-04-27T01:37:57.892Z,706.00
2023-04-27T01:38:57.889Z,704.00
2023-04-27T01:39:57.911Z,703.00
2023-04-27T01:40:59.772Z,703.00
2023-04-27T01:41:58.647Z,703.00
2023-04-27T01:42:58.301Z,706.00
2023-04-27T01:43:57.956Z,706.00
2023-04-27T01:44:57.967Z,705.00
2023-04-27T01:45:57.997Z,704.00
2023-04-27T01:46:58.000Z,704.00
2023-04-27T01:47:58.047Z,705.00
2023-04-27T01:48:58.009Z,704.00
2023-04-27T01:49:58.017Z,701.00
2023-04-27T01:50:59.283Z,700.00
2023-04-27T01:51:58.041Z,703.00
2023-04-27T01:52:58.329Z,702.00
2023-04-27T01:53:58.077Z,704.00
2023-04-27T01:54:58.171Z,706.00
2023-04-27T01:55:58.112Z,707.00
2023-04-27T01:56:58.138Z,704.00
2023-04-27T01:57:58.168Z,702.00
2023-04-27T01:58:58.186Z,702.00
2023-04-27T01:59:58.210Z,700.00
2023-04-27T02:00:58.213Z,696.00
2023-04-27T02:01:58.249Z,696.00
2023-04-27T02:02:58.340Z,696.00
2023-04-27T02:03:58.371Z,691.00
2023-04-27T02:05:00.237Z,689.00
2023-04-27T02:05:58.265Z,688.00
2023-04-27T02:06:58.290Z,689.00
2023-04-27T02:07:58.318Z,685.00
2023-04-27T02:08:58.339Z,686.00
2023-04-27T02:09:58.369Z,687.00
2023-04-27T02:10:58.389Z,688.00
2023-04-27T02:11:58.394Z,690.00
2023-04-27T02:12:58.429Z,689.00
2023-04-27T02:13:59.202Z,688.00
2023-04-27T02:14:58.412Z,689.00
2023-04-27T02:15:58.453Z,685.00
2023-04-27T02:16:58.520Z,679.00
2023-04-27T02:17:58.551Z,681.00
2023-04-27T02:18:58.513Z,678.00
2023-04-27T02:19:58.511Z,682.00
2023-04-27T02:20:58.514Z,684.00
2023-04-27T02:21:58.521Z,682.00
2023-04-27T02:22:58.544Z,688.00
2023-04-27T02:23:58.593Z,689.00
2023-04-27T02:24:58.616Z,687.00
2023-04-27T02:25:58.636Z,688.00
2023-04-27T02:26:58.662Z,689.00
2023-04-27T02:27:58.678Z,690.00
2023-04-27T02:28:58.685Z,690.00
2023-04-27T02:29:58.702Z,692.00
2023-04-27T02:30:59.763Z,692.00
2023-04-27T02:31:58.806Z,692.00
2023-04-27T02:32:59.053Z,691.00
2023-04-27T02:33:58.739Z,690.00
2023-04-27T02:34:58.759Z,686.00
2023-04-27T02:35:58.769Z,687.00
2023-04-27T02:36:58.799Z,690.00
2023-04-27T02:37:58.804Z,692.00
2023-04-27T02:38:58.827Z,691.00
2023-04-27T02:40:00.701Z,687.00
2023-04-27T02:40:58.849Z,687.00
2023-04-27T02:41:58.866Z,684.00
2023-04-27T02:42:58.885Z,687.00
2023-04-27T02:43:58.905Z,689.00
2023-04-27T02:44:58.893Z,688.00
2023-04-27T02:45:58.869Z,689.00
2023-04-27T02:46:58.911Z,689.00
2023-04-27T02:47:59.339Z,684.00
2023-04-27T02:48:58.820Z,686.00
2023-04-27T02:49:58.806Z,680.00
2023-04-27T02:50:58.794Z,678.00
2023-04-27T02:51:58.778Z,678.00
2023-04-27T02:52:59.482Z,680.00
2023-04-27T02:53:58.747Z,680.00
2023-04-27T02:54:58.739Z,683.00
2023-04-27T02:55:58.730Z,687.00
2023-04-27T02:56:58.714Z,686.00
2023-04-27T02:57:58.698Z,683.00
2023-04-27T02:58:58.685Z,684.00
2023-04-27T02:59:58.723Z,684.00
2023-04-27T03:00:58.777Z,685.00
2023-04-27T03:01:58.749Z,686.00
2023-04-27T03:02:58.847Z,688.00
2023-04-27T03:03:58.817Z,684.00
2023-04-27T03:04:59.496Z,685.00
2023-04-27T03:05:58.775Z,682.00
2023-04-27T03:06:58.775Z,679.00
2023-04-27T03:07:58.787Z,674.00
2023-04-27T03:08:58.790Z,673.00
2023-04-27T03:09:58.807Z,676.00
2023-04-27T03:10:58.817Z,678.00
2023-04-27T03:11:58.837Z,679.00
2023-04-27T03:12:58.850Z,679.00
2023-04-27T03:13:58.868Z,682.00
2023-04-27T03:14:58.916Z,682.00
2023-04-27T03:15:58.958Z,682.00
2023-04-27T03:16:59.007Z,681.00
2023-04-27T03:17:59.010Z,682.00
2023-04-27T03:18:58.976Z,676.00
2023-04-27T03:19:58.986Z,676.00
2023-04-27T03:20:58.999Z,675.00
2023-04-27T03:21:59.005Z,678.00
2023-04-27T03:22:59.001Z,676.00
2023-04-27T03:23:59.012Z,675.00
2023-04-27T03:24:59.021Z,672.00
2023-04-27T03:25:59.040Z,674.00
2023-04-27T03:26:59.047Z,673.00
2023-04-27T03:28:00.323Z,671.00
2023-04-27T03:28:59.065Z,667.00
2023-04-27T03:29:59.056Z,665.00
2023-04-27T03:30:59.069Z,664.00
2023-04-27T03:31:59.116Z,665.00
2023-04-27T03:32:59.135Z,665.00
2023-04-27T03:33:59.106Z,663.00
2023-04-27T03:34:59.121Z,663.00
2023-04-27T03:35:59.136Z,664.00
2023-04-27T03:36:59.136Z,665.00
2023-04-27T03:37:59.153Z,663.00
2023-04-27T03:38:59.149Z,661.00
2023-04-27T03:39:59.183Z,661.00
2023-04-27T03:40:59.193Z,664.00
2023-04-27T03:41:59.211Z,664.00
2023-04-27T03:42:59.324Z,669.00
2023-04-27T03:43:59.197Z,666.00
2023-04-27T03:44:59.251Z,668.00
2023-04-27T03:45:59.275Z,672.00
2023-04-27T03:47:00.288Z,672.00
2023-04-27T03:47:59.292Z,674.00
2023-04-27T03:48:59.270Z,675.00
2023-04-27T03:49:59.261Z,674.00
2023-04-27T03:50:59.280Z,672.00
2023-04-27T03:51:59.281Z,670.00
2023-04-27T03:53:00.377Z,670.00
2023-04-27T03:53:59.318Z,668.00
2023-04-27T03:54:59.343Z,671.00
2023-04-27T03:55:59.368Z,674.00
2023-04-27T03:56:59.366Z,674.00
2023-04-27T03:57:59.383Z,673.00
2023-04-27T03:58:59.395Z,671.00
2023-04-27T03:59:59.396Z,671.00
2023-04-27T04:00:59.405Z,673.00
2023-04-27T04:02:01.139Z,671.00
2023-04-27T04:02:59.560Z,673.00
2023-04-27T04:03:59.672Z,671.00
2023-04-27T04:04:59.554Z,671.00
2023-04-27T04:05:59.461Z,670.00
2023-04-27T04:07:01.461Z,672.00
2023-04-27T04:07:59.478Z,671.00
2023-04-27T04:08:59.487Z,669.00
2023-04-27T04:09:59.528Z,671.00
2023-04-27T04:10:59.587Z,668.00
2023-04-27T04:11:59.572Z,670.00
2023-04-27T04:12:59.612Z,670.00
2023-04-27T04:13:59.604Z,670.00
2023-04-27T04:14:59.650Z,669.00
2023-04-27T04:15:59.676Z,670.00
2023-04-27T04:16:59.654Z,672.00
2023-04-27T04:17:59.682Z,671.00
2023-04-27T04:18:59.650Z,671.00
2023-04-27T04:19:59.678Z,670.00
2023-04-27T04:20:59.700Z,671.00
2023-04-27T04:21:59.742Z,669.00
2023-04-27T04:22:59.732Z,670.00
2023-04-27T04:23:59.732Z,669.00
2023-04-27T04:24:59.760Z,669.00
2023-04-27T04:25:59.772Z,669.00
2023-04-27T04:26:59.779Z,670.00
2023-04-27T04:27:59.805Z,670.00
2023-04-27T04:28:59.808Z,669.00
2023-04-27T04:29:59.810Z,669.00
2023-04-27T04:30:59.871Z,667.00
2023-04-27T04:31:59.837Z,668.00
2023-04-27T04:32:59.890Z,665.00
2023-04-27T04:33:59.851Z,668.00
2023-04-27T04:34:59.848Z,664.00
2023-04-27T04:35:59.869Z,663.00
2023-04-27T04:36:59.891Z,664.00
2023-04-27T04:37:59.908Z,662.00
2023-04-27T04:38:59.906Z,662.00
2023-04-27T04:39:59.907Z,662.00
2023-04-27T04:40:59.921Z,661.00
2023-04-27T04:41:59.917Z,664.00
2023-04-27T04:42:59.928Z,662.00
2023-04-27T04:44:00.727Z,665.00
2023-04-27T04:44:59.940Z,665.00
2023-04-27T04:45:59.956Z,653.00
2023-04-27T04:47:00.023Z,654.00
2023-04-27T04:48:00.046Z,656.00
2023-04-27T04:48:59.978Z,656.00
2023-04-27T04:49:59.997Z,656.00
2023-04-27T04:51:00.015Z,655.00
2023-04-27T04:52:00.027Z,656.00
2023-04-27T04:53:00.850Z,657.00
2023-04-27T04:54:01.729Z,657.00
2023-04-27T04:55:00.030Z,657.00
2023-04-27T04:56:00.066Z,655.00
2023-04-27T04:57:00.034Z,655.00
2023-04-27T04:58:00.048Z,652.00
2023-04-27T04:59:00.031Z,655.00
2023-04-27T05:00:00.040Z,656.00
2023-04-27T05:01:00.037Z,655.00
2023-04-27T05:02:00.166Z,652.00
2023-04-27T05:03:02.164Z,652.00
2023-04-27T05:04:00.237Z,652.00
2023-04-27T05:05:00.180Z,653.00
2023-04-27T05:06:00.092Z,652.00
2023-04-27T05:07:00.051Z,655.00
2023-04-27T05:08:00.809Z,656.00
2023-04-27T05:09:00.080Z,657.00
2023-04-27T05:10:00.170Z,657.00
2023-04-27T05:11:00.093Z,656.00
2023-04-27T05:12:00.085Z,655.00
2023-04-27T05:13:00.091Z,656.00
2023-04-27T05:14:00.084Z,656.00
2023-04-27T05:15:00.079Z,653.00
2023-04-27T05:16:00.153Z,656.00
2023-04-27T05:17:01.072Z,655.00
2023-04-27T05:18:00.172Z,661.00
2023-04-27T05:19:00.076Z,662.00
2023-04-27T05:20:00.125Z,656.00
2023-04-27T05:21:00.104Z,652.00
2023-04-27T05:22:00.121Z,653.00
2023-04-27T05:23:00.130Z,653.00
2023-04-27T05:24:02.060Z,655.00
2023-04-27T05:25:00.160Z,654.00
2023-04-27T05:26:00.134Z,652.00
2023-04-27T05:27:01.531Z,706.00
2023-04-27T05:28:00.185Z,822.00
2023-04-27T05:29:00.124Z,809.00
2023-04-27T05:30:00.188Z,764.00
2023-04-27T05:31:01.047Z,744.00
2023-04-27T05:32:00.277Z,751.00
2023-04-27T05:33:00.242Z,755.00
2023-04-27T05:34:00.171Z,754.00
2023-04-27T05:35:00.263Z,747.00
2023-04-27T05:36:00.270Z,741.00
2023-04-27T05:37:00.253Z,742.00
2023-04-27T05:38:00.289Z,744.00
2023-04-27T05:39:00.310Z,741.00
2023-04-27T05:40:00.319Z,736.00
2023-04-27T05:41:00.336Z,733.00
2023-04-27T05:42:00.393Z,734.00
2023-04-27T05:43:00.414Z,729.00
2023-04-27T05:44:00.441Z,731.00
2023-04-27T05:45:00.526Z,731.00
2023-04-27T05:46:00.546Z,729.00
2023-04-27T05:47:00.505Z,735.00
2023-04-27T05:48:00.572Z,735.00
2023-04-27T05:49:00.693Z,739.00
2023-04-27T05:50:00.558Z,737.00
2023-04-27T05:51:00.555Z,741.00
2023-04-27T05:52:00.548Z,739.00
2023-04-27T05:53:00.544Z,742.00
2023-04-27T05:54:00.563Z,744.00
2023-04-27T05:55:00.552Z,744.00
2023-04-27T05:56:00.570Z,741.00
2023-04-27T05:57:00.585Z,741.00
2023-04-27T05:58:07.793Z,744.00
2023-04-27T05:59:10.745Z,742.00
2023-04-27T06:00:01.542Z,741.00
2023-04-27T06:01:00.541Z,741.00
2023-04-27T06:02:00.523Z,742.00
2023-04-27T06:03:00.629Z,742.00
2023-04-27T06:04:00.607Z,739.00
2023-04-27T06:05:00.478Z,737.00
2023-04-27T06:06:00.400Z,735.00
2023-04-27T06:07:00.389Z,730.00
2023-04-27T06:08:00.351Z,727.00
2023-04-27T06:09:00.334Z,726.00
2023-04-27T06:10:00.305Z,726.00
2023-04-27T06:11:00.282Z,725.00
2023-04-27T06:12:02.029Z,723.00
2023-04-27T06:13:00.221Z,723.00
2023-04-27T06:14:00.192Z,723.00
2023-04-27T06:15:00.212Z,722.00
2023-04-27T06:16:00.230Z,722.00
2023-04-27T06:17:00.260Z,718.00
2023-04-27T06:18:00.166Z,714.00
2023-04-27T06:19:00.111Z,714.00
2023-04-27T06:20:00.036Z,714.00
2023-04-27T06:21:00.015Z,717.00
2023-04-27T06:21:59.986Z,717.00
2023-04-27T06:22:59.973Z,716.00
2023-04-27T06:23:59.935Z,817.00
2023-04-27T06:24:59.922Z,813.00
2023-04-27T06:25:59.875Z,856.00
2023-04-27T06:26:59.853Z,903.00
2023-04-27T06:27:59.820Z,960.00
2023-04-27T06:28:59.790Z,966.00
2023-04-27T06:29:59.758Z,1042.00
2023-04-27T06:30:59.733Z,1053.00
2023-04-27T06:31:59.843Z,1070.00
2023-04-27T06:32:59.895Z,1170.00
2023-04-27T06:33:59.720Z,1167.00
2023-04-27T06:34:59.747Z,1173.00
2023-04-27T06:35:59.776Z,1195.00
2023-04-27T06:36:59.786Z,1203.00
2023-04-27T06:38:00.630Z,1229.00
2023-04-27T06:38:59.891Z,1244.00
2023-04-27T06:39:59.817Z,1330.00
2023-04-27T06:40:59.821Z,1332.00
2023-04-27T06:42:00.574Z,1345.00
2023-04-27T06:42:59.822Z,1375.00
2023-04-27T06:43:59.821Z,1385.00
2023-04-27T06:44:59.823Z,1397.00
2023-04-27T06:45:59.947Z,1464.00
2023-04-27T06:47:00.498Z,1496.00
2023-04-27T06:47:59.818Z,1533.00
2023-04-27T06:48:59.780Z,1559.00
2023-04-27T06:49:59.748Z,1575.00
2023-04-27T06:50:59.746Z,1629.00
2023-04-27T06:51:59.726Z,1652.00
2023-04-27T06:52:59.692Z,1680.00
2023-04-27T06:53:59.671Z,1669.00
2023-04-27T06:54:59.653Z,1684.00
2023-04-27T06:55:59.669Z,1716.00
2023-04-27T06:56:59.592Z,1744.00
2023-04-27T06:58:00.504Z,1752.00
2023-04-27T06:58:59.560Z,1815.00
2023-04-27T06:59:59.540Z,1809.00
2023-04-27T07:00:59.528Z,1808.00
2023-04-27T07:01:59.610Z,1835.00
2023-04-27T07:02:59.552Z,1849.00
2023-04-27T07:03:59.549Z,1939.00
2023-04-27T07:04:59.517Z,1926.00
2023-04-27T07:05:59.415Z,1943.00
2023-04-27T07:06:59.402Z,1973.00
2023-04-27T07:08:02.473Z,1984.00
2023-04-27T07:08:59.362Z,1996.00
2023-04-27T07:09:59.319Z,2010.00
2023-04-27T07:10:59.300Z,2076.00
2023-04-27T07:11:59.248Z,2078.00
2023-04-27T07:12:59.214Z,2094.00
2023-04-27T07:13:59.193Z,2110.00
2023-04-27T07:14:59.153Z,2246.00
2023-04-27T07:16:01.062Z,2101.00
2023-04-27T07:16:59.067Z,2086.00
2023-04-27T07:17:59.048Z,2105.00
2023-04-27T07:18:58.983Z,2147.00
2023-04-27T07:19:59.583Z,2252.00
2023-04-27T07:20:58.914Z,2219.00
2023-04-27T07:21:59.879Z,2276.00
2023-04-27T07:22:59.831Z,2204.00
2023-04-27T07:23:58.797Z,1488.00
2023-04-27T07:24:58.757Z,1521.00
2023-04-27T07:25:58.750Z,1363.00
2023-04-27T07:26:58.709Z,1277.00
2023-04-27T07:27:59.519Z,1224.00
2023-04-27T07:28:58.646Z,1169.00
2023-04-27T07:29:58.627Z,1173.00
2023-04-27T07:30:58.611Z,1170.00
2023-04-27T07:31:58.652Z,1188.00
2023-04-27T07:32:58.635Z,1333.00
2023-04-27T07:33:58.519Z,1376.00
2023-04-27T07:34:58.487Z,1485.00
2023-04-27T07:35:58.459Z,1530.00
2023-04-27T07:36:58.429Z,1524.00
2023-04-27T07:37:58.411Z,1541.00
2023-04-27T07:38:58.368Z,1639.00
2023-04-27T07:39:58.365Z,1654.00
2023-04-27T07:40:58.341Z,1670.00
2023-04-27T07:41:58.256Z,1726.00
2023-04-27T07:42:58.218Z,1754.00
2023-04-27T07:43:58.173Z,1763.00
2023-04-27T07:44:58.123Z,1775.00
2023-04-27T07:45:58.113Z,1859.00
2023-04-27T07:46:59.018Z,1523.00
2023-04-27T07:47:58.912Z,1318.00
2023-04-27T07:48:57.978Z,1268.00
2023-04-27T07:49:57.950Z,1167.00
2023-04-27T07:50:57.910Z,1182.00
2023-04-27T07:51:57.881Z,1078.00
2023-04-27T07:52:57.955Z,1064.00
2023-04-27T07:53:57.817Z,1055.00
2023-04-27T07:54:57.802Z,993.00
2023-04-27T07:55:57.765Z,928.00
2023-04-27T07:56:57.724Z,947.00
2023-04-27T07:57:57.721Z,943.00
2023-04-27T07:58:57.721Z,923.00
2023-04-27T07:59:57.738Z,905.00
2023-04-27T08:00:57.778Z,944.00
2023-04-27T08:02:11.232Z,905.00
2023-04-27T08:02:58.888Z,891.00
2023-04-27T08:03:57.955Z,904.00
2023-04-27T08:04:58.121Z,907.00
2023-04-27T08:05:58.153Z,896.00
2023-04-27T08:06:58.090Z,887.00
2023-04-27T08:07:57.745Z,870.00
2023-04-27T08:08:57.636Z,868.00
2023-04-27T08:09:57.603Z,887.00
2023-04-27T08:10:57.602Z,880.00
2023-04-27T08:11:57.588Z,983.00
2023-04-27T08:12:58.026Z,912.00
2023-04-27T08:13:59.036Z,914.00
2023-04-27T08:14:58.622Z,905.00
2023-04-27T08:15:58.609Z,929.00
2023-04-27T08:16:57.734Z,922.00
2023-04-27T08:17:57.684Z,900.00
2023-04-27T08:18:58.655Z,904.00
2023-04-27T08:19:57.651Z,896.00
2023-04-27T08:20:57.632Z,880.00
2023-04-27T08:21:57.599Z,863.00
2023-04-27T08:22:57.560Z,775.00
2023-04-27T08:23:57.544Z,746.00
2023-04-27T08:24:57.522Z,713.00
2023-04-27T08:25:57.511Z,714.00
2023-04-27T08:26:57.509Z,727.00
2023-04-27T08:27:57.479Z,752.00
2023-04-27T08:28:57.471Z,753.00
2023-04-27T08:29:57.484Z,750.00
2023-04-27T08:30:57.464Z,759.00
2023-04-27T08:31:57.538Z,763.00
2023-04-27T08:32:57.445Z,763.00
2023-04-27T08:33:57.384Z,758.00
2023-04-27T08:34:57.362Z,753.00
2023-04-27T08:35:57.347Z,752.00
2023-04-27T08:36:57.330Z,748.00
2023-04-27T08:37:57.333Z,745.00
2023-04-27T08:38:57.280Z,760.00
2023-04-27T08:39:57.267Z,785.00
2023-04-27T08:41:00.863Z,780.00
2023-04-27T08:41:58.199Z,779.00
2023-04-27T08:42:57.199Z,783.00
2023-04-27T08:43:58.475Z,792.00
2023-04-27T08:44:57.150Z,797.00
2023-04-27T08:45:57.163Z,803.00
2023-04-27T08:46:57.169Z,801.00
2023-04-27T08:47:57.175Z,792.00
2023-04-27T08:48:57.179Z,795.00
2023-04-27T08:49:57.185Z,784.00
2023-04-27T08:50:58.121Z,797.00
2023-04-27T08:51:57.202Z,806.00
2023-04-27T08:52:57.327Z,838.00
2023-04-27T08:53:57.214Z,840.00
2023-04-27T08:54:58.050Z,840.00
2023-04-27T08:55:57.185Z,850.00
2023-04-27T08:56:58.126Z,864.00
2023-04-27T08:57:57.170Z,873.00
2023-04-27T08:58:58.056Z,908.00
2023-04-27T08:59:57.158Z,912.00
2023-04-27T09:00:57.166Z,916.00
2023-04-27T09:01:57.166Z,908.00
2023-04-27T09:02:57.264Z,889.00
2023-04-27T09:03:57.217Z,904.00
2023-04-27T09:04:57.256Z,936.00
2023-04-27T09:06:04.589Z,925.00
2023-04-27T09:06:58.002Z,931.00
2023-04-27T09:07:56.973Z,926.00
2023-04-27T09:08:56.940Z,929.00
2023-04-27T09:09:56.908Z,928.00
2023-04-27T09:10:56.916Z,931.00
2023-04-27T09:11:56.834Z,940.00
2023-04-27T09:12:56.811Z,947.00
2023-04-27T09:13:56.776Z,953.00
2023-04-27T09:14:56.754Z,949.00
2023-04-27T09:15:56.741Z,882.00
2023-04-27T09:16:56.702Z,882.00
2023-04-27T09:17:56.783Z,923.00
2023-04-27T09:18:56.640Z,918.00
2023-04-27T09:19:56.606Z,928.00
2023-04-27T09:20:56.587Z,932.00
2023-04-27T09:21:56.565Z,928.00
2023-04-27T09:22:56.537Z,925.00
2023-04-27T09:23:56.522Z,925.00
2023-04-27T09:24:56.484Z,926.00
2023-04-27T09:25:57.148Z,924.00
2023-04-27T09:26:58.982Z,917.00
2023-04-27T09:27:56.419Z,916.00
2023-04-27T09:28:56.381Z,914.00
2023-04-27T09:29:56.353Z,914.00
2023-04-27T09:30:56.338Z,916.00
2023-04-27T09:31:56.351Z,920.00
2023-04-27T09:32:56.385Z,919.00
2023-04-27T09:33:56.245Z,913.00
2023-04-27T09:34:56.219Z,911.00
2023-04-27T09:35:56.209Z,913.00
2023-04-27T09:36:56.162Z,916.00
2023-04-27T09:37:56.122Z,911.00
2023-04-27T09:38:56.100Z,907.00
2023-04-27T09:39:56.072Z,908.00
2023-04-27T09:40:56.638Z,905.00
2023-04-27T09:41:56.020Z,901.00
2023-04-27T09:42:55.976Z,899.00
2023-04-27T09:43:57.834Z,895.00
2023-04-27T09:44:55.926Z,895.00
2023-04-27T09:45:55.952Z,896.00
2023-04-27T09:46:55.867Z,898.00
2023-04-27T09:47:55.883Z,900.00
2023-04-27T09:48:55.831Z,902.00
2023-04-27T09:49:55.792Z,900.00
2023-04-27T09:50:55.775Z,898.00
2023-04-27T09:51:55.744Z,899.00
2023-04-27T09:52:55.709Z,899.00
2023-04-27T09:53:55.675Z,900.00
2023-04-27T09:54:55.660Z,900.00
2023-04-27T09:55:55.659Z,901.00
2023-04-27T09:56:55.608Z,898.00
2023-04-27T09:57:55.563Z,898.00
2023-04-27T09:58:55.540Z,892.00
2023-04-27T09:59:55.515Z,893.00
2023-04-27T10:00:55.514Z,896.00
2023-04-27T10:01:55.461Z,895.00
2023-04-27T10:02:55.614Z,899.00
2023-04-27T10:03:55.604Z,898.00
2023-04-27T10:04:55.427Z,896.00
2023-04-27T10:05:55.371Z,897.00
2023-04-27T10:06:57.725Z,902.00
2023-04-27T10:07:55.492Z,909.00
2023-04-27T10:08:55.483Z,908.00
2023-04-27T10:09:55.462Z,908.00
2023-04-27T10:10:55.450Z,903.00
2023-04-27T10:11:55.449Z,903.00
2023-04-27T10:12:55.463Z,905.00
2023-04-27T10:13:55.471Z,907.00
2023-04-27T10:14:55.391Z,906.00
2023-04-27T10:15:55.390Z,906.00
2023-04-27T10:16:55.423Z,904.00
2023-04-27T10:17:55.395Z,905.00
2023-04-27T10:18:55.347Z,901.00
2023-04-27T10:19:57.336Z,898.00
2023-04-27T10:20:55.287Z,896.00
2023-04-27T10:21:55.251Z,897.00
2023-04-27T10:22:55.223Z,897.00
2023-04-27T10:23:55.213Z,895.00
2023-04-27T10:24:55.170Z,895.00
2023-04-27T10:25:55.135Z,891.00
2023-04-27T10:26:55.161Z,887.00
2023-04-27T10:27:55.072Z,886.00
2023-04-27T10:28:55.042Z,887.00
2023-04-27T10:29:55.017Z,888.00
2023-04-27T10:30:55.030Z,893.00
2023-04-27T10:31:54.961Z,891.00
2023-04-27T10:32:54.953Z,891.00
2023-04-27T10:33:54.896Z,890.00
2023-04-27T10:34:54.873Z,884.00
2023-04-27T10:35:54.870Z,884.00
2023-04-27T10:36:54.827Z,884.00
2023-04-27T10:37:54.794Z,877.00
2023-04-27T10:38:54.778Z,874.00
2023-04-27T10:39:55.032Z,877.00
2023-04-27T10:40:54.732Z,872.00
2023-04-27T10:41:54.711Z,870.00
2023-04-27T10:42:54.694Z,867.00
2023-04-27T10:43:54.665Z,870.00
2023-04-27T10:44:54.651Z,871.00
2023-04-27T10:45:54.638Z,867.00
2023-04-27T10:46:54.598Z,863.00
2023-04-27T10:47:54.589Z,860.00
2023-04-27T10:48:54.538Z,859.00
2023-04-27T10:49:54.539Z,858.00
2023-04-27T10:50:54.498Z,859.00
2023-04-27T10:51:54.463Z,862.00
2023-04-27T10:52:54.429Z,863.00
2023-04-27T10:53:54.405Z,860.00
2023-04-27T10:54:54.372Z,861.00
2023-04-27T10:55:54.402Z,862.00
2023-04-27T10:56:54.384Z,862.00
2023-04-27T10:57:54.307Z,861.00
2023-04-27T10:58:54.292Z,862.00
2023-04-27T10:59:54.260Z,865.00
2023-04-27T11:00:54.255Z,866.00
2023-04-27T11:01:54.290Z,864.00
2023-04-27T11:02:54.309Z,862.00
2023-04-27T11:03:54.215Z,865.00
2023-04-27T11:05:54.250Z,858.00
2023-04-27T11:06:54.118Z,860.00
2023-04-27T11:07:54.086Z,863.00
2023-04-27T11:08:54.061Z,863.00
2023-04-27T11:09:54.044Z,865.00
2023-04-27T11:10:54.016Z,866.00
2023-04-27T11:11:53.986Z,864.00
2023-04-27T11:12:53.955Z,863.00
2023-04-27T11:13:53.935Z,860.00
2023-04-27T11:14:53.919Z,857.00
2023-04-27T11:15:53.930Z,855.00
2023-04-27T11:16:53.872Z,847.00
2023-04-27T11:17:53.860Z,846.00
2023-04-27T11:18:53.813Z,844.00
2023-04-27T11:19:53.790Z,845.00
2023-04-27T11:20:53.769Z,846.00
2023-04-27T11:21:53.756Z,845.00
2023-04-27T11:22:53.717Z,848.00
2023-04-27T11:23:53.693Z,846.00
2023-04-27T11:24:53.684Z,842.00
2023-04-27T11:25:53.663Z,841.00
2023-04-27T11:26:53.613Z,850.00
2023-04-27T11:27:53.581Z,851.00
2023-04-27T11:28:53.579Z,849.00
2023-04-27T11:29:53.546Z,841.00
2023-04-27T11:30:53.529Z,840.00
2023-04-27T11:31:53.562Z,841.00
2023-04-27T11:32:53.506Z,839.00
2023-04-27T11:33:53.453Z,842.00
2023-04-27T11:34:54.298Z,844.00
2023-04-27T11:35:53.403Z,842.00
2023-04-27T11:36:55.496Z,844.00
2023-04-27T11:37:54.372Z,844.00
2023-04-27T11:38:53.321Z,842.00
2023-04-27T11:39:53.325Z,840.00
2023-04-27T11:40:53.273Z,838.00
2023-04-27T11:41:53.247Z,837.00
2023-04-27T11:42:53.240Z,839.00
2023-04-27T11:43:53.195Z,840.00
2023-04-27T11:44:53.172Z,837.00
2023-04-27T11:45:53.156Z,837.00
2023-04-27T11:46:53.220Z,841.00
2023-04-27T11:47:53.132Z,848.00
2023-04-27T11:48:53.065Z,853.00
2023-04-27T11:49:53.041Z,856.00
2023-04-27T11:50:53.232Z,860.00
2023-04-27T11:51:53.004Z,862.00
2023-04-27T11:52:52.965Z,859.00
2023-04-27T11:53:52.926Z,858.00
2023-04-27T11:54:52.898Z,857.00
2023-04-27T11:55:52.876Z,856.00
2023-04-27T11:56:52.846Z,856.00
2023-04-27T11:57:52.814Z,851.00
2023-04-27T11:58:52.785Z,847.00
2023-04-27T11:59:52.751Z,845.00
2023-04-27T12:00:52.726Z,847.00
2023-04-27T12:01:52.724Z,846.00
2023-04-27T12:02:52.797Z,846.00
2023-04-27T12:03:52.825Z,844.00
2023-04-27T12:04:52.888Z,846.00
2023-04-27T12:05:53.541Z,847.00
2023-04-27T12:06:52.570Z,848.00
2023-04-27T12:07:52.539Z,849.00
2023-04-27T12:08:52.501Z,844.00
2023-04-27T12:09:52.488Z,845.00
2023-04-27T12:10:52.458Z,847.00
2023-04-27T12:11:52.428Z,844.00
2023-04-27T12:12:52.400Z,844.00
2023-04-27T12:13:52.381Z,846.00
2023-04-27T12:14:52.354Z,844.00
2023-04-27T12:15:52.326Z,843.00
2023-04-27T12:16:52.374Z,840.00
2023-04-27T12:17:52.347Z,843.00
2023-04-27T12:18:52.316Z,837.00
2023-04-27T12:19:52.306Z,837.00
2023-04-27T12:20:52.289Z,836.00
2023-04-27T12:21:52.298Z,835.00
2023-04-27T12:22:52.309Z,836.00
2023-04-27T12:23:52.306Z,835.00
2023-04-27T12:24:52.313Z,833.00
2023-04-27T12:25:52.306Z,829.00
2023-04-27T12:26:52.313Z,826.00